• Join FlightAware (Why Join?)
  • Login
  • US Flag 
10:31PM EST


 

Airport Tracker/Info


-or-


 

Live Flight TrackerFlight Track Log ✈ DCM837C ✈ 27-Apr-2013 ✈ KPHL - KBED

Flight Track Log - Related Links

Times and Time Zones

All times are in EDT time to prevent confusion due to time zone crossing. See the DCM837C flight status page for this flight to view local times or setup timezone preferences in your user account.

Time Position Orientation Groundspeed Altitude Reporting Facility
EDT Latitude Longitude Course Direction KTS MPH feet Rate Location/Type
06:02AM 39.8667 -75.2667 218° Southwest 170 196 600  Level Philadelphia TRACON
06:03AM 39.8333 -75.3000 218° Southwest 203 234 1,900 3,000 Climbing Philadelphia TRACON
06:04AM 39.8000 -75.3500 229° Southwest 219 252 5,400 3,300 Climbing Philadelphia TRACON
06:05AM 39.7167 -75.3667 189° South 265 305 9,200 2,220 Climbing Philadelphia TRACON
06:07AM 39.7214 -75.2133 88° East 308 354 11,900 1,200 Climbing New York Center
06:08AM 39.7408 -75.0822 79° East 349 402 12,600 1,560 Climbing New York Center
06:09AM 39.8097 -74.9650 53° Northeast 372 428 15,000 2,220 Climbing New York Center
06:10AM 39.8692 -74.8711 50° Northeast 372 428 17,100 1,920 Climbing New York Center
06:11AM 39.9422 -74.7536 51° Northeast 377 434 18,900 1,980 Climbing New York Center
06:12AM 39.9975 -74.6592 53° Northeast 370 426 21,200 1,980 Climbing New York Center
06:13AM 40.0658 -74.5436 52° Northeast 365 420 23,000 900 Climbing New York Center
06:14AM 40.1383 -74.4253 51° Northeast 379 436 23,000  Level New York Center
06:15AM 40.2131 -74.2961 53° Northeast 408 470 23,000  Level New York Center
06:16AM 40.2878 -74.1694 52° Northeast 437 503 23,000  Level New York Center
06:18AM 40.4081 -73.9689 52° Northeast 460 529 23,000  Level Boston Center
06:19AM 40.4869 -73.8372 52° Northeast 460 529 23,000  Level Boston Center
06:20AM 40.5636 -73.7050 53° Northeast 460 529 23,000  Level Boston Center
06:21AM 40.6400 -73.5614 55° Northeast 450 518 23,000  Level Boston Center
06:22AM 40.7164 -73.4342 52° Northeast 440 506 23,000  Level Boston Center
06:23AM 40.7839 -73.3200 52° Northeast 435 501 23,000  Level Boston Center
06:24AM 40.8744 -73.2058 44° Northeast 435 501 23,000 -600 Level Boston Center
06:25AM 40.9769 -73.1164 33° Northeast 440 506 21,900 -1,140 Descending Boston Center
06:26AM 41.0797 -73.0322 32° Northeast 440 506 20,800 -1,140 Descending Boston Center
06:27AM 41.1800 -72.9447 33° Northeast 435 501 19,700 -1,200 Descending Boston Center
06:28AM 41.2783 -72.8628 32° Northeast 417 480 18,500 -960 Descending Boston Center
06:29AM 41.3828 -72.7719 33° Northeast 407 468 17,800 -900 Descending Boston Center
06:30AM 41.4622 -72.7033 33° Northeast 396 456 16,700 -1,200 Descending Boston Center
06:31AM 41.5603 -72.6178 33° Northeast 386 444 15,500 -1,140 Descending Boston Center
06:31AM 41.5939 -72.5928 29° Northeast 375 432 15,200 -840 Descending Boston Center
06:32AM 41.6314 -72.5594 34° Northeast 381 438 14,700 -1,260 Descending Boston Center
06:33AM 41.7294 -72.4511 39° Northeast 374 430 13,200 -1,440 Descending Boston Center
06:34AM 41.8022 -72.3733 39° Northeast 374 430 11,900 -1,020 Descending Boston Center
06:35AM 41.8917 -72.2756 39° Northeast 362 417 11,100 -900 Descending Boston Center
06:36AM 41.9500 -72.2056 42° Northeast 345 397 10,100 -1,200 Descending Boston Center
06:37AM 42.0164 -72.1300 40° Northeast 297 342 8,800 -1,200 Descending Boston Center
06:38AM 42.0706 -72.0681 40° Northeast 277 319 7,700 -1,200 Descending Boston Center
06:39AM 42.1389 -71.9950 38° Northeast 277 319 6,500 -1,200 Descending Boston Center
06:40AM 42.1950 -71.9300 41° Northeast 282 325 5,400 -720 Descending Boston Center
06:41AM 42.2633 -71.8567 38° Northeast 268 308 5,100 -180 Descending Boston Center
06:42AM 42.3111 -71.7972 43° Northeast 266 306 5,100 -60 Level Boston Center
06:43AM 42.3753 -71.7292 38° Northeast 266 306 5,000 -240 Descending Boston Center
06:44AM 42.4167 -71.6722 45° Northeast 239 275 4,700 -900 Descending Boston Center
06:45AM 42.4556 -71.6044 52° Northeast 209 241 3,300 -840 Descending Boston Center
06:46AM 42.4803 -71.5450 61° Northeast 194 223 3,100 -180 Descending Boston Center
06:47AM 42.4881 -71.4800 81° East 166 191 3,000 -480 Descending Boston Center
06:48AM 42.4833 -71.4294 97° East 155 178 2,200 -600 Descending Boston Center
06:49AM 42.4869 -71.3703 85° East 150 173 1,900  Descending Boston Center
06:50AM 42.5097 -71.3333 50° Northeast 138 159 2,200 60 Climbing Boston Center
06:51AM 42.5194 -71.2739 77° East 138 159 2,100 -180 Descending Boston Center
06:52AM 42.5189 -71.2261 91° East 143 165 1,900 -300 Descending Boston Center
06:53AM 42.4978 -71.1842 124° Southeast 122 140 1,500 6,540 Descending Boston Center
06:54AM 42.4825 -71.1422 116° Southeast 122 140 15,000 13,500 Climbing Boston Center
06:56AM 42.4667 -71.2833 225° Southwest  Level FlightAware Approximate
07:03AM 42.4699 -71.2890 225° Southwest  Level Estimated